Time;durP1;ratioP1;P1;durP2;ratioP2;P2;SDS_P1;SDS_P2;PMS_P1;PMS_P2;Temp;Humidity;BMP_temperature;BMP_pressure;BME280_temperature;BME280_humidity;BME280_pressure;Samples;Min_cycle;Max_cycle;Signal;HPM_P1;HPM_P2
2021/12/31 00:02:17;;;;;;;1.00;0.90;;;;;;;10.91;100.00;96752.13;10542036;28;20664;-79
2021/12/31 00:07:17;;;;;;;1.40;1.20;;;;;;;10.94;100.00;96751.81;10542148;28;20211;-79
2021/12/31 00:12:17;;;;;;;0.93;0.80;;;;;;;10.92;100.00;96743.28;10542107;28;20190;-79
2021/12/31 00:17:18;;;;;;;0.70;0.70;;;;;;;10.86;100.00;96746.53;10541581;28;20261;-78
2021/12/31 00:27:25;;;;;;;0.73;0.60;;;;;;;10.92;100.00;96737.19;10541025;28;20203;-78
2021/12/31 00:32:25;;;;;;;1.40;0.93;;;;;;;10.85;100.00;96745.69;10541124;28;20191;-79
2021/12/31 00:37:30;;;;;;;0.80;0.80;;;;;;;10.94;100.00;96753.59;10540776;28;20253;-79
2021/12/31 00:42:31;;;;;;;1.00;0.90;;;;;;;10.99;100.00;96749.53;10522770;28;20273;-78
2021/12/31 00:47:31;;;;;;;1.50;0.90;;;;;;;11.05;100.00;96743.63;10522121;28;20602;-79
2021/12/31 00:52:32;;;;;;;1.17;0.90;;;;;;;11.11;100.00;96757.94;10522091;28;20186;-78
2021/12/31 00:57:33;;;;;;;3.53;1.20;;;;;;;11.11;100.00;96759.72;10539804;28;20190;-79
2021/12/31 01:02:34;;;;;;;1.50;0.80;;;;;;;11.14;100.00;96759.41;10539868;28;20561;-78
2021/12/31 01:07:34;;;;;;;1.73;0.90;;;;;;;11.17;100.00;96764.34;10540075;28;20308;-78
2021/12/31 01:12:34;;;;;;;0.60;0.60;;;;;;;11.15;100.00;96767.13;10539462;28;20549;-79
2021/12/31 01:22:48;;;;;;;1.20;0.80;;;;;;;11.14;100.00;96783.81;10539254;28;20654;-78
2021/12/31 01:27:48;;;;;;;0.60;0.60;;;;;;;11.18;100.00;96786.94;10538641;28;20211;-79
2021/12/31 01:32:49;;;;;;;0.70;0.70;;;;;;;11.11;100.00;96799.88;10539070;28;20654;-78
2021/12/31 01:37:49;;;;;;;0.70;0.70;;;;;;;11.14;100.00;96804.81;10538177;28;20238;-78
2021/12/31 01:42:50;;;;;;;0.90;0.90;;;;;;;11.06;100.00;96800.34;10519811;28;20202;-78
2021/12/31 01:47:59;;;;;;;0.73;0.73;;;;;;;11.08;100.00;96802.81;10538095;28;20218;-78
2021/12/31 01:53:00;;;;;;;1.43;0.80;;;;;;;11.12;100.00;96800.69;10537929;28;20193;-79
2021/12/31 01:58:02;;;;;;;1.70;0.80;;;;;;;11.12;100.00;96798.06;10537694;28;20187;-78
2021/12/31 02:03:04;;;;;;;1.88;0.68;;;;;;;11.18;100.00;96800.91;10536067;28;20546;-78
2021/12/31 02:08:04;;;;;;;2.60;0.90;;;;;;;11.11;100.00;96810.34;10519142;28;20347;-78
2021/12/31 02:13:05;;;;;;;0.88;0.80;;;;;;;11.03;100.00;96810.34;10536893;28;20264;-78
2021/12/31 02:18:08;;;;;;;0.70;0.70;;;;;;;11.07;100.00;96812.47;10519222;28;20190;-78
2021/12/31 02:23:32;;;;;;;1.67;1.00;;;;;;;11.06;100.00;96804.78;10536915;28;20208;-78
2021/12/31 02:28:32;;;;;;;1.05;0.80;;;;;;;11.04;100.00;96799.69;10536374;28;20236;-78
2021/12/31 02:33:33;;;;;;;0.60;0.60;;;;;;;11.01;100.00;96804.41;10518439;28;20198;-79
2021/12/31 02:38:34;;;;;;;1.20;0.98;;;;;;;11.01;100.00;96800.00;10536537;28;20234;-78
2021/12/31 02:43:34;;;;;;;0.80;0.80;;;;;;;11.04;100.00;96804.09;10517629;28;20190;-78
2021/12/31 02:48:34;;;;;;;1.05;1.02;;;;;;;10.98;100.00;96802.09;10518337;28;20692;-78
2021/12/31 02:53:40;;;;;;;0.97;0.83;;;;;;;11.12;100.00;96803.31;10535386;28;20209;-78
2021/12/31 02:58:41;;;;;;;0.90;0.83;;;;;;;11.17;100.00;96801.06;10535661;28;20206;-78
2021/12/31 03:03:42;;;;;;;1.00;0.80;;;;;;;11.16;100.00;96805.44;10518208;28;20186;-78
2021/12/31 03:08:45;;;;;;;0.88;0.80;;;;;;;11.11;100.00;96809.56;10500586;28;20275;-78
2021/12/31 03:13:51;;;;;;;0.90;0.90;;;;;;;11.01;100.00;96804.41;10535592;28;20229;-78
2021/12/31 03:18:52;;;;;;;1.42;0.70;;;;;;;11.06;100.00;96807.41;10518177;28;20543;-78
2021/12/31 03:23:54;;;;;;;2.07;0.97;;;;;;;11.02;100.00;96808.69;10535385;28;20734;-78
2021/12/31 03:28:55;;;;;;;1.33;0.90;;;;;;;11.01;100.00;96814.91;10535249;28;20214;-78
2021/12/31 03:33:55;;;;;;;1.07;0.80;;;;;;;11.12;100.00;96808.56;10517890;28;20218;-78
2021/12/31 03:38:56;;;;;;;0.80;0.80;;;;;;;11.06;100.00;96799.53;10534551;28;20234;-79
2021/12/31 03:43:56;;;;;;;1.20;0.90;;;;;;;11.04;100.00;96801.47;10535166;28;20194;-79
2021/12/31 03:48:57;;;;;;;2.42;0.90;;;;;;;11.00;100.00;96787.06;10532771;28;20313;-78
2021/12/31 03:53:57;;;;;;;1.70;0.97;;;;;;;11.05;100.00;96790.81;10534289;28;20198;-78
2021/12/31 03:58:59;;;;;;;1.00;0.90;;;;;;;11.12;100.00;96796.28;10533821;28;20215;-79
2021/12/31 04:03:59;;;;;;;1.25;0.88;;;;;;;11.09;100.00;96785.28;10533765;28;20285;-79
2021/12/31 04:09:00;;;;;;;2.10;1.00;;;;;;;11.07;100.00;96794.13;10535351;28;20228;-78
2021/12/31 04:14:00;;;;;;;0.80;0.80;;;;;;;11.04;100.00;96781.34;10534291;28;20202;-79
2021/12/31 04:19:01;;;;;;;0.93;0.77;;;;;;;10.97;100.00;96772.44;10517180;28;20274;-79
2021/12/31 04:24:14;;;;;;;0.90;0.80;;;;;;;10.99;100.00;96770.50;10526068;28;20194;-79
2021/12/31 04:29:14;;;;;;;2.00;0.80;;;;;;;10.92;100.00;96777.34;10525663;28;20246;-79
2021/12/31 04:34:14;;;;;;;0.90;0.90;;;;;;;10.92;100.00;96779.97;10526816;28;20191;-78
2021/12/31 04:39:15;;;;;;;1.37;0.90;;;;;;;11.01;100.00;96778.19;10525908;28;20222;-78
2021/12/31 04:44:15;;;;;;;1.33;0.90;;;;;;;10.97;100.00;96769.84;10507363;28;20232;-79
2021/12/31 04:49:15;;;;;;;1.20;0.97;;;;;;;10.91;100.00;96773.09;10530069;28;20740;-78
2021/12/31 04:54:16;;;;;;;1.23;0.97;;;;;;;10.84;100.00;96785.16;10515342;28;20194;-79
2021/12/31 04:59:17;;;;;;;2.63;0.93;;;;;;;10.65;100.00;96786.22;10532942;28;20523;-79
2021/12/31 05:04:17;;;;;;;1.00;0.90;;;;;;;10.57;100.00;96780.94;10538080;28;20186;-79
2021/12/31 05:09:18;;;;;;;1.90;0.90;;;;;;;10.57;100.00;96796.66;10539864;28;20218;-79
2021/12/31 05:14:19;;;;;;;0.90;0.90;;;;;;;10.59;100.00;96792.09;10538694;28;20189;-79
2021/12/31 05:19:19;;;;;;;0.70;0.70;;;;;;;10.71;100.00;96794.28;10521237;28;20179;-79
2021/12/31 05:24:19;;;;;;;1.10;0.80;;;;;;;10.78;100.00;96796.28;10539056;28;20197;-78
2021/12/31 05:29:20;;;;;;;1.05;0.75;;;;;;;10.84;100.00;96798.25;10521076;28;20229;-79
2021/12/31 05:34:20;;;;;;;1.00;0.60;;;;;;;10.86;100.00;96791.09;10538600;28;20553;-78
2021/12/31 05:39:20;;;;;;;2.28;0.73;;;;;;;10.83;100.00;96802.69;10520558;28;20615;-79
2021/12/31 05:44:21;;;;;;;1.00;0.90;;;;;;;10.88;100.00;96805.66;10538321;28;20191;-79
2021/12/31 05:49:22;;;;;;;0.68;0.68;;;;;;;10.94;100.00;96798.97;10538224;28;20223;-79
2021/12/31 05:54:22;;;;;;;0.60;0.60;;;;;;;10.80;100.00;96831.84;10537904;28;20198;-79
2021/12/31 05:59:22;;;;;;;0.70;0.70;;;;;;;10.64;100.00;96829.94;10519657;28;20195;-79
2021/12/31 06:04:23;;;;;;;1.00;0.70;;;;;;;10.79;100.00;96824.13;10537281;28;20198;-79
2021/12/31 06:09:23;;;;;;;2.42;0.73;;;;;;;10.84;100.00;96819.22;10537473;28;20301;-79
2021/12/31 06:14:24;;;;;;;0.60;0.60;;;;;;;10.82;100.00;96815.97;10537160;28;20201;-79
2021/12/31 06:19:24;;;;;;;1.75;1.25;;;;;;;10.86;100.00;96819.91;10537077;28;20210;-79
2021/12/31 06:24:25;;;;;;;0.70;0.60;;;;;;;10.81;100.00;96823.00;10536706;28;20195;-79
2021/12/31 06:29:25;;;;;;;0.80;0.80;;;;;;;10.84;100.00;96811.38;10536695;28;20221;-79
2021/12/31 06:34:26;;;;;;;9.47;4.87;;;;;;;10.89;100.00;96809.13;10518263;28;20195;-79
2021/12/31 06:39:27;;;;;;;3.63;2.20;;;;;;;10.85;100.00;96810.41;10536758;28;20295;-79
2021/12/31 06:44:28;;;;;;;1.70;1.30;;;;;;;10.84;100.00;96814.00;10536322;28;20243;-79
2021/12/31 06:49:28;;;;;;;3.15;2.38;;;;;;;10.89;100.00;96827.47;10535986;28;20275;-79
2021/12/31 06:54:28;;;;;;;5.80;3.73;;;;;;;10.81;100.00;96820.38;10535815;28;20194;-79
2021/12/31 06:59:29;;;;;;;1.57;0.90;;;;;;;10.80;100.00;96823.16;10536347;28;20193;-78
2021/12/31 07:04:29;;;;;;;0.90;0.90;;;;;;;10.76;100.00;96829.69;10517389;28;20547;-79
2021/12/31 07:09:30;;;;;;;1.70;1.60;;;;;;;10.85;100.00;96831.38;10535517;28;20768;-79
2021/12/31 07:14:30;;;;;;;1.33;1.00;;;;;;;10.82;100.00;96835.09;10535794;28;20711;-79
2021/12/31 07:19:30;;;;;;;2.00;1.07;;;;;;;10.87;100.00;96850.38;10500467;28;20642;-79
2021/12/31 07:24:31;;;;;;;1.83;1.03;;;;;;;10.84;100.00;96845.44;10517653;28;20221;-79
2021/12/31 07:29:31;;;;;;;1.00;1.00;;;;;;;10.82;100.00;96850.03;10516941;28;20215;-79
2021/12/31 07:34:32;;;;;;;3.10;1.03;;;;;;;10.83;100.00;96846.44;10535203;28;20201;-79
2021/12/31 07:39:34;;;;;;;2.63;1.23;;;;;;;10.80;100.00;96844.94;10522381;28;20837;-79
2021/12/31 07:44:35;;;;;;;0.97;0.90;;;;;;;10.80;100.00;96844.13;10542881;28;20297;-79
2021/12/31 07:49:35;;;;;;;2.03;1.10;;;;;;;10.92;100.00;96836.81;10521546;28;20313;-80
2021/12/31 07:54:35;;;;;;;2.47;0.83;;;;;;;10.90;100.00;96839.56;10542604;28;20197;-79
2021/12/31 07:59:36;;;;;;;1.47;0.93;;;;;;;10.90;100.00;96842.19;10524131;28;20190;-79
2021/12/31 08:04:36;;;;;;;1.40;0.97;;;;;;;10.89;100.00;96849.25;10539281;28;20265;-79
2021/12/31 08:09:37;;;;;;;0.83;0.80;;;;;;;10.94;100.00;96867.13;10539990;28;20582;-79
2021/12/31 08:14:37;;;;;;;0.97;0.93;;;;;;;10.99;100.00;96864.03;10539364;28;20190;-79
2021/12/31 08:19:37;;;;;;;2.17;0.90;;;;;;;11.02;100.00;96872.41;10539303;28;20191;-79
2021/12/31 08:24:38;;;;;;;2.03;0.80;;;;;;;10.98;100.00;96876.34;10539229;28;20277;-79
2021/12/31 08:29:38;;;;;;;1.63;1.00;;;;;;;11.00;100.00;96882.25;10538441;28;20218;-79
2021/12/31 08:34:38;;;;;;;0.93;0.90;;;;;;;11.09;100.00;96871.78;10538664;28;20281;-79
2021/12/31 08:39:39;;;;;;;1.52;1.38;;;;;;;11.15;100.00;96865.91;10539286;28;20252;-79
2021/12/31 08:44:39;;;;;;;2.20;1.57;;;;;;;11.20;100.00;96858.44;10538507;28;20247;-78
2021/12/31 08:49:40;;;;;;;2.25;1.10;;;;;;;11.18;100.00;96852.50;10538152;28;20221;-78
2021/12/31 08:54:40;;;;;;;2.25;1.00;;;;;;;11.21;100.00;96858.28;10537389;28;20203;-79
2021/12/31 08:59:40;;;;;;;0.88;0.88;;;;;;;11.20;100.00;96851.38;10519086;28;20650;-79
2021/12/31 09:04:41;;;;;;;1.23;1.13;;;;;;;11.22;100.00;96869.56;10537021;28;20252;-79
2021/12/31 09:09:41;;;;;;;1.77;1.20;;;;;;;11.26;100.00;96860.41;10537866;28;20215;-78
2021/12/31 09:14:41;;;;;;;2.33;1.30;;;;;;;11.06;100.00;96850.16;10518778;28;20194;-78
2021/12/31 09:19:42;;;;;;;1.50;1.10;;;;;;;11.23;100.00;96856.31;10537217;28;20189;-79
2021/12/31 09:24:43;;;;;;;1.75;1.40;;;;;;;11.17;100.00;96867.41;10536873;28;20199;-79
2021/12/31 09:29:43;;;;;;;2.13;1.20;;;;;;;11.20;100.00;96858.44;10535844;28;20218;-78
2021/12/31 09:34:44;;;;;;;2.60;1.40;;;;;;;11.36;100.00;96849.78;10518219;28;20191;-78
2021/12/31 09:39:44;;;;;;;2.15;1.10;;;;;;;11.34;100.00;96851.75;10517760;28;20519;-78
2021/12/31 09:44:48;;;;;;;2.42;1.30;;;;;;;11.30;100.00;96859.13;10535791;28;20186;-78
2021/12/31 09:49:49;;;;;;;2.17;1.20;;;;;;;11.38;100.00;96851.28;10500675;28;20221;-78
2021/12/31 09:54:49;;;;;;;3.67;1.10;;;;;;;11.42;100.00;96857.88;10517662;28;20195;-79
2021/12/31 09:59:49;;;;;;;2.38;1.20;;;;;;;11.42;100.00;96850.00;10534612;28;20198;-78
2021/12/31 10:04:55;;;;;;;1.38;0.90;;;;;;;11.53;100.00;96840.19;10535696;28;20670;-78
2021/12/31 10:10:13;;;;;;;1.53;1.20;;;;;;;11.52;100.00;96817.56;10516570;28;20660;-78
2021/12/31 10:15:14;;;;;;;4.37;3.40;;;;;;;11.62;100.00;96801.69;10535410;28;20629;-78
2021/12/31 10:20:15;;;;;;;6.82;3.42;;;;;;;11.71;100.00;96805.97;10500108;28;20190;-78
2021/12/31 10:25:30;;;;;;;5.78;2.85;;;;;;;11.71;100.00;96795.47;10534204;28;20563;-78
2021/12/31 10:30:30;;;;;;;1.83;1.50;;;;;;;11.84;100.00;96787.94;10533785;28;20224;-78
2021/12/31 10:35:42;;;;;;;1.88;1.20;;;;;;;11.86;100.00;96787.78;10516180;28;20252;-77
2021/12/31 10:40:44;;;;;;;1.10;1.00;;;;;;;12.60;96.05;96770.22;10534215;28;20186;-77
2021/12/31 10:46:08;;;;;;;1.77;1.67;;;;;;;12.82;92.19;96763.41;10534011;28;20186;-78
2021/12/31 10:51:10;;;;;;;1.27;1.08;;;;;;;12.97;90.24;96744.28;10534058;28;20222;-77
2021/12/31 10:56:12;;;;;;;1.60;1.48;;;;;;;13.02;89.64;96760.38;10533278;28;20190;-77
2021/12/31 11:01:15;;;;;;;1.90;1.10;;;;;;;13.08;88.71;96751.81;10534094;28;20194;-77
2021/12/31 11:06:16;;;;;;;2.13;1.20;;;;;;;12.92;88.18;96728.19;10514771;28;20187;-76
2021/12/31 11:11:19;;;;;;;1.30;0.95;;;;;;;13.42;85.64;96708.56;10515871;28;20222;-76
2021/12/31 11:16:19;;;;;;;1.30;1.00;;;;;;;13.45;85.57;96728.47;10508347;28;20523;-76
2021/12/31 11:21:20;;;;;;;1.55;0.95;;;;;;;13.58;83.88;96717.34;10544224;28;20196;-76
2021/12/31 11:26:28;;;;;;;1.88;0.80;;;;;;;14.31;81.75;96705.38;10526642;28;20194;-76
2021/12/31 11:31:29;;;;;;;2.95;1.02;;;;;;;13.74;80.87;96691.72;10543816;28;20371;-76
2021/12/31 11:36:52;;;;;;;4.35;1.00;;;;;;;14.16;79.67;96684.25;10543719;28;20260;-77
2021/12/31 11:41:58;;;;;;;0.77;0.70;;;;;;;13.95;78.70;96669.19;10525489;28;20209;-77
2021/12/31 11:47:15;;;;;;;1.77;0.85;;;;;;;13.82;80.24;96690.03;10543325;28;20282;-77
2021/12/31 11:52:20;;;;;;;2.67;0.90;;;;;;;14.21;78.55;96671.38;10524632;28;20566;-76
2021/12/31 11:57:29;;;;;;;1.85;1.17;;;;;;;14.52;75.89;96643.22;10543195;28;20193;-77
2021/12/31 12:02:38;;;;;;;1.60;0.75;;;;;;;14.23;78.00;96650.94;10539640;28;20195;-77
2021/12/31 12:07:41;;;;;;;3.88;1.20;;;;;;;13.72;77.31;96643.69;10520342;28;20302;-78
2021/12/31 12:12:49;;;;;;;1.88;0.85;;;;;;;14.62;77.11;96649.03;10517293;28;20211;-79
2021/12/31 12:17:50;;;;;;;1.02;0.90;;;;;;;14.57;76.41;96641.66;10494582;28;20188;-78
2021/12/31 12:22:54;;;;;;;1.50;1.00;;;;;;;14.48;76.06;96626.94;10522696;28;20199;-77
2021/12/31 12:28:02;;;;;;;3.45;1.05;;;;;;;15.20;74.24;96612.16;10541727;28;20227;-78
2021/12/31 12:38:17;;;;;;;2.75;1.02;;;;;;;16.06;70.64;96576.91;10540857;28;20234;-78
2021/12/31 12:43:24;;;;;;;1.60;0.70;;;;;;;13.53;77.15;96655.50;10540975;28;20187;-78
2021/12/31 12:48:42;;;;;;;0.80;0.80;;;;;;;12.83;80.67;96678.28;10522369;28;20227;-78
2021/12/31 12:53:45;;;;;;;2.70;0.90;;;;;;;13.17;80.90;96658.72;10522367;28;20189;-77
2021/12/31 12:58:48;;;;;;;2.05;0.88;;;;;;;12.88;82.69;96664.63;10522430;28;20183;-77
2021/12/31 13:03:53;;;;;;;2.20;1.00;;;;;;;12.59;84.21;96665.25;10539810;28;20538;-77
2021/12/31 13:09:08;;;;;;;1.65;0.98;;;;;;;12.56;84.86;96676.09;10540455;28;20222;-78
2021/12/31 13:14:17;;;;;;;2.55;0.80;;;;;;;12.33;85.28;96661.06;10539564;28;20604;-77
2021/12/31 13:19:28;;;;;;;0.80;0.80;;;;;;;12.14;85.64;96657.00;10521115;28;20620;-77
2021/12/31 13:24:29;;;;;;;1.75;1.02;;;;;;;12.53;84.79;96637.84;10521553;28;20252;-77
2021/12/31 13:29:40;;;;;;;1.20;1.10;;;;;;;12.99;82.70;96622.16;10504142;28;20214;-78
2021/12/31 13:34:51;;;;;;;2.13;1.20;;;;;;;12.42;84.57;96639.03;10535665;28;20260;-79
2021/12/31 13:40:13;;;;;;;2.15;1.55;;;;;;;12.38;84.65;96644.78;10537960;28;20194;-79
2021/12/31 13:45:21;;;;;;;1.92;1.75;;;;;;;12.01;86.15;96661.97;10538484;28;20614;-78
2021/12/31 13:50:22;;;;;;;1.35;1.10;;;;;;;11.98;86.64;96654.41;10537716;28;20218;-78
2021/12/31 13:55:28;;;;;;;5.80;2.47;;;;;;;11.83;87.28;96662.13;10537869;28;20206;-79
2021/12/31 14:00:30;;;;;;;3.08;2.03;;;;;;;11.82;87.03;96648.16;10536860;28;20187;-78
2021/12/31 14:05:30;;;;;;;4.07;2.72;;;;;;;11.81;86.58;96650.94;10537553;28;20195;-78
2021/12/31 14:10:32;;;;;;;3.58;2.45;;;;;;;11.69;87.74;96653.09;10537277;28;20215;-79
2021/12/31 14:15:36;;;;;;;10.05;4.55;;;;;;;11.45;89.23;96653.91;10537171;28;20183;-79
2021/12/31 14:20:41;;;;;;;6.47;3.38;;;;;;;11.62;88.05;96631.94;10518802;28;20616;-78
2021/12/31 14:25:44;;;;;;;9.77;4.82;;;;;;;11.60;87.80;96636.53;10534518;28;20218;-78
2021/12/31 14:30:45;;;;;;;235.05;95.85;;;;;;;11.57;87.97;96636.88;10534607;28;20236;-78
2021/12/31 14:35:48;;;;;;;8.15;3.92;;;;;;;11.48;89.04;96635.22;10535007;28;20300;-78
2021/12/31 14:40:51;;;;;;;15.82;8.10;;;;;;;11.39;89.13;96643.09;10535249;28;20191;-78
2021/12/31 14:45:52;;;;;;;8.15;3.65;;;;;;;11.42;89.42;96650.66;10533839;28;20194;-78
2021/12/31 14:50:52;;;;;;;15.38;9.27;;;;;;;11.35;89.83;96648.84;10534688;28;20241;-78
2021/12/31 14:55:53;;;;;;;8.48;3.63;;;;;;;11.51;89.33;96648.00;10515948;28;20195;-78
2021/12/31 15:00:53;;;;;;;7.50;5.38;;;;;;;11.36;90.17;96658.31;10534083;28;20205;-78
2021/12/31 15:05:53;;;;;;;5.75;3.20;;;;;;;11.46;89.90;96639.81;10515568;28;20191;-78
2021/12/31 15:10:54;;;;;;;3.15;2.28;;;;;;;11.47;90.36;96626.53;10515737;28;20276;-79
2021/12/31 15:15:54;;;;;;;2.75;2.17;;;;;;;11.36;90.67;96643.44;10534044;28;20195;-79
2021/12/31 15:20:54;;;;;;;2.05;1.48;;;;;;;11.26;91.76;96632.28;10535122;28;20182;-79
2021/12/31 15:25:55;;;;;;;11.48;6.65;;;;;;;11.25;92.69;96643.72;10494441;28;20210;-78
2021/12/31 15:30:55;;;;;;;2.20;1.80;;;;;;;11.18;93.27;96642.72;10491093;28;20310;-78
2021/12/31 15:35:56;;;;;;;1.45;1.35;;;;;;;11.30;93.09;96648.50;10480346;28;20231;-78
2021/12/31 15:40:56;;;;;;;5.55;3.67;;;;;;;11.21;93.76;96642.44;10455086;28;20183;-79
2021/12/31 15:45:57;;;;;;;2.28;1.58;;;;;;;11.26;94.07;96634.88;10489751;28;20199;-78
2021/12/31 15:50:57;;;;;;;2.10;1.63;;;;;;;11.12;95.36;96632.88;10486955;28;20226;-78
2021/12/31 15:55:57;;;;;;;2.08;1.52;;;;;;;10.95;96.48;96632.88;10489147;28;20655;-78
2021/12/31 16:00:58;;;;;;;1.35;1.25;;;;;;;10.99;97.79;96636.81;10496574;28;20199;-78
2021/12/31 16:05:58;;;;;;;3.55;3.25;;;;;;;10.91;98.05;96649.91;10499339;28;20195;-79
2021/12/31 16:10:58;;;;;;;1.55;1.45;;;;;;;10.91;99.35;96638.59;10479987;28;20309;-78
2021/12/31 16:15:59;;;;;;;1.30;1.20;;;;;;;10.99;98.25;96641.22;10499221;28;20191;-78
2021/12/31 16:20:59;;;;;;;1.60;1.50;;;;;;;11.02;98.44;96639.09;10481494;28;20187;-78
2021/12/31 16:26:00;;;;;;;6.78;2.35;;;;;;;11.12;97.20;96640.75;10498819;28;20233;-78
2021/12/31 16:31:00;;;;;;;3.17;2.57;;;;;;;11.12;97.04;96632.88;10499150;28;20226;-78
2021/12/31 16:36:01;;;;;;;1.70;1.42;;;;;;;11.22;95.95;96636.19;10467093;28;20579;-81
2021/12/31 16:41:01;;;;;;;2.70;2.20;;;;;;;11.26;95.47;96634.09;10459997;28;20188;-78
2021/12/31 16:46:02;;;;;;;2.10;1.73;;;;;;;11.29;94.74;96631.94;10453471;28;20202;-79
2021/12/31 16:51:02;;;;;;;6.15;4.47;;;;;;;11.31;94.67;96637.03;10444803;28;20303;-79
2021/12/31 16:56:03;;;;;;;6.50;3.53;;;;;;;11.37;94.67;96639.00;10456439;28;20675;-78
2021/12/31 17:01:03;;;;;;;3.85;2.10;;;;;;;11.34;94.75;96645.38;10464470;28;20541;-79
2021/12/31 17:06:04;;;;;;;2.07;1.40;;;;;;;11.31;94.78;96660.63;10457102;28;20196;-78
2021/12/31 17:11:04;;;;;;;4.50;3.17;;;;;;;11.30;95.54;96661.59;10455329;28;20318;-78
2021/12/31 17:16:04;;;;;;;12.85;7.97;;;;;;;11.28;96.47;96651.28;10438048;28;20195;-79
2021/12/31 17:21:05;;;;;;;4.28;2.53;;;;;;;11.35;96.35;96652.28;10455521;28;20196;-78
2021/12/31 17:26:05;;;;;;;1.67;1.52;;;;;;;11.18;97.42;96654.06;10455266;28;20187;-79
2021/12/31 17:31:06;;;;;;;1.63;1.50;;;;;;;11.25;97.50;96643.72;10456012;28;20315;-79
2021/12/31 17:36:07;;;;;;;2.38;1.60;;;;;;;11.23;97.71;96656.19;10467935;28;20223;-79
2021/12/31 17:41:07;;;;;;;4.38;3.08;;;;;;;11.10;98.90;96663.69;10478142;28;20184;-78
2021/12/31 17:46:10;;;;;;;1.88;1.55;;;;;;;11.21;98.31;96685.19;10478748;28;20286;-79
2021/12/31 17:51:10;;;;;;;2.78;1.50;;;;;;;11.02;99.89;96664.50;10495808;28;20230;-78
2021/12/31 17:56:11;;;;;;;3.77;1.70;;;;;;;11.03;99.83;96666.97;10495331;28;20304;-79
2021/12/31 18:01:11;;;;;;;1.67;1.58;;;;;;;11.04;100.00;96678.25;10495088;28;20206;-78
2021/12/31 18:06:12;;;;;;;3.08;1.77;;;;;;;11.11;100.00;96666.16;10495477;28;20187;-78
2021/12/31 18:11:13;;;;;;;3.10;1.50;;;;;;;11.06;100.00;96685.00;10492628;28;20346;-77
2021/12/31 18:16:14;;;;;;;1.40;1.30;;;;;;;11.06;100.00;96661.41;10477158;28;20191;-79
2021/12/31 18:21:14;;;;;;;2.35;1.65;;;;;;;11.09;100.00;96670.75;10494385;28;20569;-79
2021/12/31 18:26:14;;;;;;;2.43;1.37;;;;;;;11.08;100.00;96666.47;10494399;28;20195;-78
2021/12/31 18:31:15;;;;;;;3.78;2.20;;;;;;;11.05;100.00;96662.38;10476785;28;20215;-79
2021/12/31 18:36:16;;;;;;;1.27;1.17;;;;;;;11.14;100.00;96657.16;10502043;28;20265;-78
2021/12/31 18:41:16;;;;;;;2.23;1.33;;;;;;;11.08;100.00;96669.09;10536458;28;20215;-79
2021/12/31 18:46:31;;;;;;;1.70;1.60;;;;;;;11.00;100.00;96659.41;10535342;28;20197;-78
2021/12/31 18:51:31;;;;;;;1.55;1.30;;;;;;;10.94;100.00;96682.84;10535185;28;20305;-79
2021/12/31 18:56:32;;;;;;;2.42;1.60;;;;;;;10.92;100.00;96679.53;10536097;28;20198;-79
2021/12/31 19:01:32;;;;;;;2.42;1.58;;;;;;;10.86;100.00;96699.38;10517384;28;20194;-79
2021/12/31 19:06:33;;;;;;;2.70;1.77;;;;;;;10.67;100.00;96709.13;10535367;28;20590;-78
2021/12/31 19:11:33;;;;;;;10.90;6.30;;;;;;;10.40;100.00;96714.53;10500074;28;20225;-77
2021/12/31 19:16:33;;;;;;;4.67;2.40;;;;;;;10.18;100.00;96720.13;10534927;28;20200;-77
2021/12/31 19:21:34;;;;;;;3.77;2.00;;;;;;;10.23;100.00;96709.19;10516811;28;20193;-77
2021/12/31 19:26:34;;;;;;;3.83;1.90;;;;;;;10.46;100.00;96722.59;10535274;28;20239;-77
2021/12/31 19:31:35;;;;;;;3.17;2.13;;;;;;;10.49;100.00;96732.75;10534914;28;20309;-77
2021/12/31 19:36:35;;;;;;;7.20;3.53;;;;;;;10.60;100.00;96763.09;10541858;28;20626;-77
2021/12/31 19:41:35;;;;;;;5.10;2.07;;;;;;;10.71;100.00;96765.44;10542969;28;20309;-77
2021/12/31 19:46:36;;;;;;;4.87;1.93;;;;;;;10.75;100.00;96767.75;10543036;28;20258;-77
2021/12/31 19:51:36;;;;;;;3.83;2.25;;;;;;;10.73;100.00;96769.72;10542414;28;20316;-77
2021/12/31 19:56:36;;;;;;;3.67;2.00;;;;;;;10.73;100.00;96785.44;10524597;28;20190;-77
2021/12/31 20:01:37;;;;;;;3.17;1.93;;;;;;;10.73;100.00;96801.97;10542645;28;20182;-77
2021/12/31 20:06:37;;;;;;;3.47;2.20;;;;;;;10.69;100.00;96813.75;10542087;28;20194;-78
2021/12/31 20:11:39;;;;;;;5.07;1.90;;;;;;;10.77;100.00;96815.59;10524010;28;20222;-77
2021/12/31 20:16:39;;;;;;;2.80;2.10;;;;;;;10.70;100.00;96826.72;10541692;28;20193;-77
2021/12/31 20:21:39;;;;;;;3.17;2.30;;;;;;;10.65;100.00;96818.47;10541466;28;20193;-78
2021/12/31 20:26:40;;;;;;;4.73;2.57;;;;;;;10.68;100.00;96818.16;10541279;28;20194;-78
2021/12/31 20:31:40;;;;;;;3.83;2.73;;;;;;;10.59;100.00;96815.66;10506384;28;20296;-78
2021/12/31 20:36:41;;;;;;;4.28;2.38;;;;;;;10.63;100.00;96823.06;10540761;28;20570;-78
2021/12/31 20:41:42;;;;;;;3.60;2.10;;;;;;;10.63;100.00;96823.06;10522674;28;20206;-78
2021/12/31 20:46:42;;;;;;;4.90;2.60;;;;;;;10.58;100.00;96827.94;10539937;28;20195;-78
2021/12/31 20:51:43;;;;;;;4.07;2.57;;;;;;;10.58;100.00;96830.56;10540024;28;20218;-78
2021/12/31 20:56:44;;;;;;;3.50;2.73;;;;;;;10.50;100.00;96828.69;10540235;28;20190;-78
2021/12/31 21:01:44;;;;;;;3.87;2.57;;;;;;;10.51;100.00;96829.53;10539995;28;20179;-78
2021/12/31 21:06:45;;;;;;;2.73;2.30;;;;;;;10.48;100.00;96830.63;10539726;28;20189;-78
2021/12/31 21:11:45;;;;;;;4.17;3.77;;;;;;;10.44;100.00;96833.72;10539771;28;20210;-78
2021/12/31 21:16:46;;;;;;;9.40;3.70;;;;;;;10.50;100.00;96847.00;10521062;28;20186;-79
2021/12/31 21:21:46;;;;;;;4.60;3.13;;;;;;;10.50;100.00;96854.06;10538840;28;20190;-78
2021/12/31 21:26:46;;;;;;;7.13;2.80;;;;;;;10.46;100.00;96868.44;10521268;28;20201;-78
2021/12/31 21:31:47;;;;;;;4.23;2.87;;;;;;;10.44;100.00;96878.25;10538134;28;20226;-78
2021/12/31 21:36:47;;;;;;;5.47;3.40;;;;;;;10.40;100.00;96880.34;10520590;28;20279;-79
2021/12/31 21:41:48;;;;;;;6.23;3.57;;;;;;;10.45;100.00;96874.66;10520021;28;20186;-79
2021/12/31 21:46:48;;;;;;;12.60;6.50;;;;;;;10.44;100.00;96883.47;10536002;28;20190;-79
2021/12/31 21:51:48;;;;;;;7.00;4.17;;;;;;;10.47;100.00;96891.03;10536964;28;20221;-79
2021/12/31 21:56:49;;;;;;;5.00;3.57;;;;;;;10.47;100.00;96891.84;10536636;28;20186;-79
2021/12/31 22:01:49;;;;;;;5.53;3.30;;;;;;;10.39;100.00;96897.03;10500686;28;20554;-79
2021/12/31 22:06:50;;;;;;;6.23;4.30;;;;;;;10.38;100.00;96897.19;10513024;28;20190;-79
2021/12/31 22:11:50;;;;;;;43.63;22.97;;;;;;;10.44;100.00;96909.66;10518982;28;20317;-79
2021/12/31 22:16:50;;;;;;;4.47;3.37;;;;;;;10.38;100.00;96918.94;10536596;28;20194;-79
2021/12/31 22:21:51;;;;;;;6.67;4.80;;;;;;;10.43;100.00;96916.72;10536840;28;20235;-79
2021/12/31 22:26:52;;;;;;;10.10;3.60;;;;;;;10.32;100.00;96919.50;10537048;28;20183;-79
2021/12/31 22:31:53;;;;;;;6.60;3.83;;;;;;;10.36;100.00;96926.13;10523259;28;20309;-79
2021/12/31 22:36:55;;;;;;;4.80;3.17;;;;;;;10.30;100.00;96924.09;10499781;28;20661;-79
2021/12/31 22:41:55;;;;;;;9.90;3.77;;;;;;;10.23;100.00;96942.19;10470542;28;20266;-79
2021/12/31 22:46:55;;;;;;;5.47;3.60;;;;;;;10.38;100.00;96936.47;10468226;28;20757;-79
2021/12/31 22:51:56;;;;;;;4.80;3.57;;;;;;;10.33;100.00;96942.97;10467024;28;20218;-79
2021/12/31 22:56:56;;;;;;;9.03;5.47;;;;;;;10.26;100.00;96954.16;10486822;28;20188;-79
2021/12/31 23:02:02;;;;;;;8.57;4.50;;;;;;;10.25;100.00;96960.38;10470391;28;20266;-79
2021/12/31 23:07:02;;;;;;;23.77;13.87;;;;;;;10.31;100.00;96960.59;10471209;28;20214;-79
2021/12/31 23:12:08;;;;;;;18.80;9.97;;;;;;;10.33;100.00;96953.44;10468924;28;20587;-79
2021/12/31 23:17:08;;;;;;;52.90;32.30;;;;;;;10.20;100.00;96962.59;10472425;28;20190;-79
2021/12/31 23:22:09;;;;;;;31.43;22.67;;;;;;;10.15;100.00;96965.66;10493125;28;20187;-79
2021/12/31 23:27:13;;;;;;;14.73;9.13;;;;;;;10.17;100.00;96964.53;10492307;28;20222;-79